sensor_id;sensor_type;location;lat;lon;timestamp;P1;durP1;ratioP1;P2;durP2;ratioP2
26634;SDS011;14490;54.208;37.686;2023-08-21T00:01:25;92.13;;;31.50;;
26634;SDS011;14490;54.208;37.686;2023-08-21T00:03:52;100.25;;;31.73;;
26634;SDS011;14490;54.208;37.686;2023-08-21T00:06:20;83.75;;;29.98;;
26634;SDS011;14490;54.208;37.686;2023-08-21T00:08:47;79.45;;;28.20;;
26634;SDS011;14490;54.208;37.686;2023-08-21T00:11:14;62.35;;;24.92;;
26634;SDS011;14490;54.208;37.686;2023-08-21T00:13:42;74.90;;;25.73;;
26634;SDS011;14490;54.208;37.686;2023-08-21T00:16:10;80.68;;;31.60;;
26634;SDS011;14490;54.208;37.686;2023-08-21T00:18:38;78.65;;;32.45;;
26634;SDS011;14490;54.208;37.686;2023-08-21T00:21:06;103.93;;;45.50;;
26634;SDS011;14490;54.208;37.686;2023-08-21T00:23:33;101.57;;;46.03;;
26634;SDS011;14490;54.208;37.686;2023-08-21T00:26:03;58.90;;;24.83;;
26634;SDS011;14490;54.208;37.686;2023-08-21T00:28:31;61.47;;;23.48;;
26634;SDS011;14490;54.208;37.686;2023-08-21T00:31:00;66.00;;;24.40;;
26634;SDS011;14490;54.208;37.686;2023-08-21T00:33:28;65.20;;;24.63;;
26634;SDS011;14490;54.208;37.686;2023-08-21T00:35:58;54.20;;;22.35;;
26634;SDS011;14490;54.208;37.686;2023-08-21T00:38:25;51.22;;;21.50;;
26634;SDS011;14490;54.208;37.686;2023-08-21T00:40:53;59.80;;;24.00;;
26634;SDS011;14490;54.208;37.686;2023-08-21T00:43:20;60.92;;;23.02;;
26634;SDS011;14490;54.208;37.686;2023-08-21T00:45:48;143.43;;;58.45;;
26634;SDS011;14490;54.208;37.686;2023-08-21T00:48:17;73.25;;;29.75;;
26634;SDS011;14490;54.208;37.686;2023-08-21T00:50:45;62.75;;;24.98;;
26634;SDS011;14490;54.208;37.686;2023-08-21T00:53:14;69.57;;;26.85;;
26634;SDS011;14490;54.208;37.686;2023-08-21T00:55:41;62.72;;;24.83;;
26634;SDS011;14490;54.208;37.686;2023-08-21T00:58:09;58.90;;;24.65;;
26634;SDS011;14490;54.208;37.686;2023-08-21T01:00:38;64.10;;;26.17;;
26634;SDS011;14490;54.208;37.686;2023-08-21T01:03:06;63.05;;;26.08;;
26634;SDS011;14490;54.208;37.686;2023-08-21T01:05:34;68.75;;;25.17;;
26634;SDS011;14490;54.208;37.686;2023-08-21T01:08:03;63.95;;;24.85;;
26634;SDS011;14490;54.208;37.686;2023-08-21T01:10:39;67.28;;;25.38;;
26634;SDS011;14490;54.208;37.686;2023-08-21T01:13:18;63.47;;;26.23;;
26634;SDS011;14490;54.208;37.686;2023-08-21T01:18:23;69.72;;;24.85;;
26634;SDS011;14490;54.208;37.686;2023-08-21T01:20:57;67.75;;;24.83;;
26634;SDS011;14490;54.208;37.686;2023-08-21T01:23:33;68.18;;;24.27;;
26634;SDS011;14490;54.208;37.686;2023-08-21T01:26:02;69.95;;;24.98;;
26634;SDS011;14490;54.208;37.686;2023-08-21T01:28:30;70.90;;;25.10;;
26634;SDS011;14490;54.208;37.686;2023-08-21T01:31:00;75.93;;;27.10;;
26634;SDS011;14490;54.208;37.686;2023-08-21T01:33:35;75.60;;;26.83;;
26634;SDS011;14490;54.208;37.686;2023-08-21T01:36:11;69.93;;;26.75;;
26634;SDS011;14490;54.208;37.686;2023-08-21T01:38:41;74.35;;;27.80;;
26634;SDS011;14490;54.208;37.686;2023-08-21T01:41:09;70.65;;;25.77;;
26634;SDS011;14490;54.208;37.686;2023-08-21T01:43:36;68.40;;;25.83;;
26634;SDS011;14490;54.208;37.686;2023-08-21T01:46:04;75.63;;;27.65;;
26634;SDS011;14490;54.208;37.686;2023-08-21T01:48:32;76.13;;;27.38;;
26634;SDS011;14490;54.208;37.686;2023-08-21T01:51:00;75.30;;;27.10;;
26634;SDS011;14490;54.208;37.686;2023-08-21T01:53:27;81.18;;;27.60;;
26634;SDS011;14490;54.208;37.686;2023-08-21T01:55:56;70.63;;;26.58;;
26634;SDS011;14490;54.208;37.686;2023-08-21T01:58:26;66.25;;;25.33;;
26634;SDS011;14490;54.208;37.686;2023-08-21T02:00:54;69.93;;;26.27;;
26634;SDS011;14490;54.208;37.686;2023-08-21T02:03:21;67.97;;;26.83;;
26634;SDS011;14490;54.208;37.686;2023-08-21T02:05:55;62.65;;;24.50;;
26634;SDS011;14490;54.208;37.686;2023-08-21T02:08:25;68.53;;;25.70;;
26634;SDS011;14490;54.208;37.686;2023-08-21T02:10:59;68.13;;;25.77;;
26634;SDS011;14490;54.208;37.686;2023-08-21T02:13:27;74.15;;;26.42;;
26634;SDS011;14490;54.208;37.686;2023-08-21T02:15:54;66.22;;;25.15;;
26634;SDS011;14490;54.208;37.686;2023-08-21T02:18:21;72.43;;;25.17;;
26634;SDS011;14490;54.208;37.686;2023-08-21T02:20:49;62.40;;;24.15;;
26634;SDS011;14490;54.208;37.686;2023-08-21T02:23:16;57.45;;;21.70;;
26634;SDS011;14490;54.208;37.686;2023-08-21T02:25:43;64.80;;;24.23;;
26634;SDS011;14490;54.208;37.686;2023-08-21T02:28:12;65.55;;;24.67;;
26634;SDS011;14490;54.208;37.686;2023-08-21T02:30:40;62.75;;;24.13;;
26634;SDS011;14490;54.208;37.686;2023-08-21T02:33:07;65.22;;;25.02;;
26634;SDS011;14490;54.208;37.686;2023-08-21T02:35:35;62.22;;;23.63;;
26634;SDS011;14490;54.208;37.686;2023-08-21T02:38:02;65.55;;;22.25;;
26634;SDS011;14490;54.208;37.686;2023-08-21T02:40:37;67.22;;;23.70;;
26634;SDS011;14490;54.208;37.686;2023-08-21T02:43:05;64.88;;;24.52;;
26634;SDS011;14490;54.208;37.686;2023-08-21T02:45:33;57.22;;;22.95;;
26634;SDS011;14490;54.208;37.686;2023-08-21T02:48:01;61.08;;;22.85;;
26634;SDS011;14490;54.208;37.686;2023-08-21T02:50:28;54.55;;;22.52;;
26634;SDS011;14490;54.208;37.686;2023-08-21T02:52:56;57.60;;;23.55;;
26634;SDS011;14490;54.208;37.686;2023-08-21T02:55:23;64.32;;;24.27;;
26634;SDS011;14490;54.208;37.686;2023-08-21T02:57:50;68.10;;;22.85;;
26634;SDS011;14490;54.208;37.686;2023-08-21T03:00:18;57.60;;;21.17;;
26634;SDS011;14490;54.208;37.686;2023-08-21T03:02:47;47.55;;;21.00;;
26634;SDS011;14490;54.208;37.686;2023-08-21T03:05:15;33.40;;;14.93;;
26634;SDS011;14490;54.208;37.686;2023-08-21T03:07:43;42.15;;;15.77;;
26634;SDS011;14490;54.208;37.686;2023-08-21T03:10:10;38.65;;;15.50;;
26634;SDS011;14490;54.208;37.686;2023-08-21T03:12:37;42.58;;;16.25;;
26634;SDS011;14490;54.208;37.686;2023-08-21T03:15:05;39.72;;;13.93;;
26634;SDS011;14490;54.208;37.686;2023-08-21T03:17:33;44.40;;;11.00;;
26634;SDS011;14490;54.208;37.686;2023-08-21T03:20:02;25.42;;;10.27;;
26634;SDS011;14490;54.208;37.686;2023-08-21T03:22:31;33.30;;;9.10;;
26634;SDS011;14490;54.208;37.686;2023-08-21T03:24:58;13.52;;;5.13;;
26634;SDS011;14490;54.208;37.686;2023-08-21T03:27:25;10.40;;;5.00;;
26634;SDS011;14490;54.208;37.686;2023-08-21T03:29:53;16.60;;;5.00;;
26634;SDS011;14490;54.208;37.686;2023-08-21T03:32:20;12.75;;;4.80;;
26634;SDS011;14490;54.208;37.686;2023-08-21T03:34:47;12.32;;;3.75;;
26634;SDS011;14490;54.208;37.686;2023-08-21T03:37:16;7.90;;;3.50;;
26634;SDS011;14490;54.208;37.686;2023-08-21T03:39:43;8.00;;;3.88;;
26634;SDS011;14490;54.208;37.686;2023-08-21T03:42:11;10.13;;;4.63;;
26634;SDS011;14490;54.208;37.686;2023-08-21T03:44:39;9.43;;;4.20;;
26634;SDS011;14490;54.208;37.686;2023-08-21T03:47:06;11.55;;;4.40;;
26634;SDS011;14490;54.208;37.686;2023-08-21T03:49:33;11.85;;;5.57;;
26634;SDS011;14490;54.208;37.686;2023-08-21T03:52:02;15.07;;;6.70;;
26634;SDS011;14490;54.208;37.686;2023-08-21T03:54:32;23.65;;;8.82;;
26634;SDS011;14490;54.208;37.686;2023-08-21T03:56:59;31.60;;;8.93;;
26634;SDS011;14490;54.208;37.686;2023-08-21T03:59:26;41.72;;;11.27;;
26634;SDS011;14490;54.208;37.686;2023-08-21T04:01:54;38.97;;;11.65;;
26634;SDS011;14490;54.208;37.686;2023-08-21T04:04:21;35.97;;;12.00;;
26634;SDS011;14490;54.208;37.686;2023-08-21T04:06:49;41.30;;;12.15;;
26634;SDS011;14490;54.208;37.686;2023-08-21T04:09:30;43.28;;;12.88;;
26634;SDS011;14490;54.208;37.686;2023-08-21T04:11:59;45.08;;;11.00;;
26634;SDS011;14490;54.208;37.686;2023-08-21T04:14:26;30.25;;;9.93;;
26634;SDS011;14490;54.208;37.686;2023-08-21T04:16:54;32.72;;;9.55;;
26634;SDS011;14490;54.208;37.686;2023-08-21T04:19:21;28.23;;;9.88;;
26634;SDS011;14490;54.208;37.686;2023-08-21T04:21:49;37.50;;;10.52;;
26634;SDS011;14490;54.208;37.686;2023-08-21T04:24:16;27.55;;;9.32;;
26634;SDS011;14490;54.208;37.686;2023-08-21T04:26:45;25.02;;;8.80;;
26634;SDS011;14490;54.208;37.686;2023-08-21T04:29:13;22.17;;;8.07;;
26634;SDS011;14490;54.208;37.686;2023-08-21T04:31:40;28.98;;;9.27;;
26634;SDS011;14490;54.208;37.686;2023-08-21T04:34:07;25.48;;;8.80;;
26634;SDS011;14490;54.208;37.686;2023-08-21T04:36:34;30.52;;;9.80;;
26634;SDS011;14490;54.208;37.686;2023-08-21T04:39:02;32.53;;;10.07;;
26634;SDS011;14490;54.208;37.686;2023-08-21T04:41:29;27.05;;;10.00;;
26634;SDS011;14490;54.208;37.686;2023-08-21T04:43:58;27.67;;;9.60;;
26634;SDS011;14490;54.208;37.686;2023-08-21T04:46:26;31.20;;;10.15;;
26634;SDS011;14490;54.208;37.686;2023-08-21T04:48:54;22.27;;;8.75;;
26634;SDS011;14490;54.208;37.686;2023-08-21T04:51:21;24.23;;;8.93;;
26634;SDS011;14490;54.208;37.686;2023-08-21T04:53:48;22.98;;;8.50;;
26634;SDS011;14490;54.208;37.686;2023-08-21T04:56:15;18.90;;;7.18;;
26634;SDS011;14490;54.208;37.686;2023-08-21T04:58:43;22.13;;;8.23;;
26634;SDS011;14490;54.208;37.686;2023-08-21T05:01:11;23.35;;;7.65;;
26634;SDS011;14490;54.208;37.686;2023-08-21T05:03:39;18.00;;;7.45;;
26634;SDS011;14490;54.208;37.686;2023-08-21T05:06:07;19.75;;;7.43;;
26634;SDS011;14490;54.208;37.686;2023-08-21T05:08:34;18.45;;;7.82;;
26634;SDS011;14490;54.208;37.686;2023-08-21T05:11:02;13.73;;;6.90;;
26634;SDS011;14490;54.208;37.686;2023-08-21T05:13:29;12.88;;;6.30;;
26634;SDS011;14490;54.208;37.686;2023-08-21T05:15:57;13.50;;;6.35;;
26634;SDS011;14490;54.208;37.686;2023-08-21T05:18:26;12.60;;;6.43;;
26634;SDS011;14490;54.208;37.686;2023-08-21T05:20:54;12.90;;;5.63;;
26634;SDS011;14490;54.208;37.686;2023-08-21T05:23:22;11.02;;;5.35;;
26634;SDS011;14490;54.208;37.686;2023-08-21T05:25:49;13.25;;;4.93;;
26634;SDS011;14490;54.208;37.686;2023-08-21T05:28:16;10.68;;;4.80;;
26634;SDS011;14490;54.208;37.686;2023-08-21T05:30:46;10.38;;;5.25;;
26634;SDS011;14490;54.208;37.686;2023-08-21T05:33:14;11.80;;;5.32;;
26634;SDS011;14490;54.208;37.686;2023-08-21T05:35:43;11.27;;;5.22;;
26634;SDS011;14490;54.208;37.686;2023-08-21T05:38:10;9.73;;;5.55;;
26634;SDS011;14490;54.208;37.686;2023-08-21T05:40:37;12.23;;;5.68;;
26634;SDS011;14490;54.208;37.686;2023-08-21T05:43:07;8.95;;;5.53;;
26634;SDS011;14490;54.208;37.686;2023-08-21T05:45:35;11.68;;;6.00;;
26634;SDS011;14490;54.208;37.686;2023-08-21T05:48:02;7.38;;;5.38;;
26634;SDS011;14490;54.208;37.686;2023-08-21T05:50:31;7.80;;;5.10;;
26634;SDS011;14490;54.208;37.686;2023-08-21T05:52:59;10.40;;;5.22;;
26634;SDS011;14490;54.208;37.686;2023-08-21T05:55:27;6.85;;;4.20;;
26634;SDS011;14490;54.208;37.686;2023-08-21T05:57:54;9.32;;;3.85;;
26634;SDS011;14490;54.208;37.686;2023-08-21T06:00:21;6.35;;;4.07;;
26634;SDS011;14490;54.208;37.686;2023-08-21T06:02:49;5.97;;;4.10;;
26634;SDS011;14490;54.208;37.686;2023-08-21T06:05:16;7.65;;;4.82;;
26634;SDS011;14490;54.208;37.686;2023-08-21T06:07:43;8.73;;;4.20;;
26634;SDS011;14490;54.208;37.686;2023-08-21T06:10:12;6.82;;;4.57;;
26634;SDS011;14490;54.208;37.686;2023-08-21T06:12:40;7.97;;;4.78;;
26634;SDS011;14490;54.208;37.686;2023-08-21T06:15:09;5.32;;;4.40;;
26634;SDS011;14490;54.208;37.686;2023-08-21T06:17:37;6.05;;;3.75;;
26634;SDS011;14490;54.208;37.686;2023-08-21T06:20:07;9.48;;;4.60;;
26634;SDS011;14490;54.208;37.686;2023-08-21T06:22:35;8.18;;;4.57;;
26634;SDS011;14490;54.208;37.686;2023-08-21T06:25:02;17.75;;;8.95;;
26634;SDS011;14490;54.208;37.686;2023-08-21T06:27:32;20.30;;;10.90;;
26634;SDS011;14490;54.208;37.686;2023-08-21T06:29:59;26.27;;;11.15;;
26634;SDS011;14490;54.208;37.686;2023-08-21T06:32:26;21.25;;;11.63;;
26634;SDS011;14490;54.208;37.686;2023-08-21T06:34:54;23.58;;;11.45;;
26634;SDS011;14490;54.208;37.686;2023-08-21T06:37:21;24.90;;;11.32;;
26634;SDS011;14490;54.208;37.686;2023-08-21T06:39:48;23.52;;;11.13;;
26634;SDS011;14490;54.208;37.686;2023-08-21T06:42:16;28.83;;;11.80;;
26634;SDS011;14490;54.208;37.686;2023-08-21T06:44:44;26.95;;;11.80;;
26634;SDS011;14490;54.208;37.686;2023-08-21T06:47:12;32.20;;;10.90;;
26634;SDS011;14490;54.208;37.686;2023-08-21T06:49:39;28.00;;;11.43;;
26634;SDS011;14490;54.208;37.686;2023-08-21T06:52:06;30.85;;;11.85;;
26634;SDS011;14490;54.208;37.686;2023-08-21T06:54:34;36.30;;;13.52;;
26634;SDS011;14490;54.208;37.686;2023-08-21T06:57:01;29.33;;;12.05;;
26634;SDS011;14490;54.208;37.686;2023-08-21T06:59:28;24.02;;;10.65;;
26634;SDS011;14490;54.208;37.686;2023-08-21T07:01:58;23.95;;;10.73;;
26634;SDS011;14490;54.208;37.686;2023-08-21T07:04:27;31.77;;;12.10;;
26634;SDS011;14490;54.208;37.686;2023-08-21T07:06:55;29.15;;;12.88;;
26634;SDS011;14490;54.208;37.686;2023-08-21T07:09:24;29.45;;;13.00;;
26634;SDS011;14490;54.208;37.686;2023-08-21T07:11:51;34.17;;;14.25;;
26634;SDS011;14490;54.208;37.686;2023-08-21T07:14:18;30.88;;;13.40;;
26634;SDS011;14490;54.208;37.686;2023-08-21T07:16:46;27.75;;;13.27;;
26634;SDS011;14490;54.208;37.686;2023-08-21T07:19:15;30.48;;;14.10;;
26634;SDS011;14490;54.208;37.686;2023-08-21T07:21:46;33.90;;;14.52;;
26634;SDS011;14490;54.208;37.686;2023-08-21T07:24:13;31.88;;;14.05;;
26634;SDS011;14490;54.208;37.686;2023-08-21T07:26:41;27.70;;;12.23;;
26634;SDS011;14490;54.208;37.686;2023-08-21T07:29:11;23.58;;;10.75;;
26634;SDS011;14490;54.208;37.686;2023-08-21T07:31:40;28.52;;;12.02;;
26634;SDS011;14490;54.208;37.686;2023-08-21T07:34:14;24.75;;;11.45;;
26634;SDS011;14490;54.208;37.686;2023-08-21T07:36:41;24.13;;;10.20;;
26634;SDS011;14490;54.208;37.686;2023-08-21T07:39:09;19.17;;;9.68;;
26634;SDS011;14490;54.208;37.686;2023-08-21T07:41:36;19.20;;;10.00;;
26634;SDS011;14490;54.208;37.686;2023-08-21T07:44:04;15.77;;;8.10;;
26634;SDS011;14490;54.208;37.686;2023-08-21T07:46:34;13.63;;;6.65;;
26634;SDS011;14490;54.208;37.686;2023-08-21T07:49:01;11.73;;;6.82;;
26634;SDS011;14490;54.208;37.686;2023-08-21T07:51:33;13.45;;;7.57;;
26634;SDS011;14490;54.208;37.686;2023-08-21T07:54:01;16.30;;;7.35;;
26634;SDS011;14490;54.208;37.686;2023-08-21T07:56:28;7.90;;;5.97;;
26634;SDS011;14490;54.208;37.686;2023-08-21T07:58:56;9.25;;;5.75;;
26634;SDS011;14490;54.208;37.686;2023-08-21T08:01:26;11.75;;;6.03;;
26634;SDS011;14490;54.208;37.686;2023-08-21T08:03:54;6.72;;;4.85;;
26634;SDS011;14490;54.208;37.686;2023-08-21T08:06:24;9.05;;;5.53;;
26634;SDS011;14490;54.208;37.686;2023-08-21T08:08:56;6.53;;;4.75;;
26634;SDS011;14490;54.208;37.686;2023-08-21T08:11:23;5.88;;;3.83;;
26634;SDS011;14490;54.208;37.686;2023-08-21T08:13:51;3.53;;;3.22;;
26634;SDS011;14490;54.208;37.686;2023-08-21T08:16:20;6.15;;;3.40;;
26634;SDS011;14490;54.208;37.686;2023-08-21T08:18:48;5.60;;;3.65;;
26634;SDS011;14490;54.208;37.686;2023-08-21T08:21:15;4.20;;;3.80;;
26634;SDS011;14490;54.208;37.686;2023-08-21T08:23:42;7.22;;;4.55;;
26634;SDS011;14490;54.208;37.686;2023-08-21T08:26:19;9.43;;;5.53;;
26634;SDS011;14490;54.208;37.686;2023-08-21T08:28:55;9.50;;;5.22;;
26634;SDS011;14490;54.208;37.686;2023-08-21T08:31:27;8.88;;;5.90;;
26634;SDS011;14490;54.208;37.686;2023-08-21T08:33:57;9.35;;;6.18;;
26634;SDS011;14490;54.208;37.686;2023-08-21T08:36:25;10.68;;;6.82;;
26634;SDS011;14490;54.208;37.686;2023-08-21T08:38:55;9.65;;;7.03;;
26634;SDS011;14490;54.208;37.686;2023-08-21T08:41:24;11.45;;;7.63;;
26634;SDS011;14490;54.208;37.686;2023-08-21T08:43:57;15.35;;;8.55;;
26634;SDS011;14490;54.208;37.686;2023-08-21T08:46:35;12.65;;;7.82;;
26634;SDS011;14490;54.208;37.686;2023-08-21T08:49:03;17.02;;;8.27;;
26634;SDS011;14490;54.208;37.686;2023-08-21T08:51:30;11.15;;;7.78;;
26634;SDS011;14490;54.208;37.686;2023-08-21T08:54:02;14.00;;;8.15;;
26634;SDS011;14490;54.208;37.686;2023-08-21T08:56:34;11.13;;;7.70;;
26634;SDS011;14490;54.208;37.686;2023-08-21T08:59:02;11.98;;;7.43;;
26634;SDS011;14490;54.208;37.686;2023-08-21T09:01:33;9.95;;;7.22;;
26634;SDS011;14490;54.208;37.686;2023-08-21T09:04:01;12.05;;;8.30;;
26634;SDS011;14490;54.208;37.686;2023-08-21T09:06:29;11.75;;;7.50;;
26634;SDS011;14490;54.208;37.686;2023-08-21T09:08:59;15.10;;;7.82;;
26634;SDS011;14490;54.208;37.686;2023-08-21T09:11:26;10.77;;;7.53;;
26634;SDS011;14490;54.208;37.686;2023-08-21T09:14:02;10.40;;;8.75;;
26634;SDS011;14490;54.208;37.686;2023-08-21T09:16:32;11.07;;;8.13;;
26634;SDS011;14490;54.208;37.686;2023-08-21T09:19:01;13.55;;;8.05;;
26634;SDS011;14490;54.208;37.686;2023-08-21T09:21:28;9.48;;;7.22;;
26634;SDS011;14490;54.208;37.686;2023-08-21T09:23:59;13.05;;;6.93;;
26634;SDS011;14490;54.208;37.686;2023-08-21T09:26:35;11.15;;;7.55;;
26634;SDS011;14490;54.208;37.686;2023-08-21T09:29:05;8.30;;;6.60;;
26634;SDS011;14490;54.208;37.686;2023-08-21T09:31:46;8.07;;;6.22;;
26634;SDS011;14490;54.208;37.686;2023-08-21T09:34:14;7.47;;;6.40;;
26634;SDS011;14490;54.208;37.686;2023-08-21T09:36:45;5.68;;;5.18;;
26634;SDS011;14490;54.208;37.686;2023-08-21T09:39:21;4.57;;;4.18;;
26634;SDS011;14490;54.208;37.686;2023-08-21T09:41:54;4.65;;;3.83;;
26634;SDS011;14490;54.208;37.686;2023-08-21T09:44:30;4.65;;;3.40;;
26634;SDS011;14490;54.208;37.686;2023-08-21T09:47:02;4.43;;;4.03;;
26634;SDS011;14490;54.208;37.686;2023-08-21T09:49:36;4.45;;;3.22;;
26634;SDS011;14490;54.208;37.686;2023-08-21T09:52:09;7.13;;;3.00;;
26634;SDS011;14490;54.208;37.686;2023-08-21T09:54:37;3.15;;;2.70;;
26634;SDS011;14490;54.208;37.686;2023-08-21T09:57:05;3.40;;;2.00;;
26634;SDS011;14490;54.208;37.686;2023-08-21T09:59:34;1.70;;;1.60;;
26634;SDS011;14490;54.208;37.686;2023-08-21T10:02:05;2.35;;;1.77;;
26634;SDS011;14490;54.208;37.686;2023-08-21T10:04:38;1.58;;;1.48;;
26634;SDS011;14490;54.208;37.686;2023-08-21T10:07:14;2.83;;;1.70;;
26634;SDS011;14490;54.208;37.686;2023-08-21T10:09:50;4.13;;;1.00;;
26634;SDS011;14490;54.208;37.686;2023-08-21T10:12:19;3.63;;;0.95;;
26634;SDS011;14490;54.208;37.686;2023-08-21T10:14:48;2.42;;;1.30;;
26634;SDS011;14490;54.208;37.686;2023-08-21T10:17:16;3.60;;;1.10;;
26634;SDS011;14490;54.208;37.686;2023-08-21T10:19:47;2.17;;;0.90;;
26634;SDS011;14490;54.208;37.686;2023-08-21T10:25:16;5.43;;;1.08;;
26634;SDS011;14490;54.208;37.686;2023-08-21T10:27:49;6.63;;;0.95;;
26634;SDS011;14490;54.208;37.686;2023-08-21T10:30:21;2.40;;;0.90;;
26634;SDS011;14490;54.208;37.686;2023-08-21T10:32:50;6.45;;;0.90;;
26634;SDS011;14490;54.208;37.686;2023-08-21T10:35:20;3.50;;;0.80;;
26634;SDS011;14490;54.208;37.686;2023-08-21T10:40:37;3.47;;;0.95;;
26634;SDS011;14490;54.208;37.686;2023-08-21T10:46:05;2.53;;;0.63;;
26634;SDS011;14490;54.208;37.686;2023-08-21T10:48:34;3.00;;;0.70;;
26634;SDS011;14490;54.208;37.686;2023-08-21T10:51:01;3.75;;;0.80;;
26634;SDS011;14490;54.208;37.686;2023-08-21T10:53:31;1.58;;;0.65;;
26634;SDS011;14490;54.208;37.686;2023-08-21T10:56:00;0.98;;;0.80;;
26634;SDS011;14490;54.208;37.686;2023-08-21T10:58:34;2.35;;;0.90;;
26634;SDS011;14490;54.208;37.686;2023-08-21T11:04:10;2.53;;;0.80;;
26634;SDS011;14490;54.208;37.686;2023-08-21T11:06:38;2.72;;;0.88;;
26634;SDS011;14490;54.208;37.686;2023-08-21T11:09:05;1.17;;;1.08;;
26634;SDS011;14490;54.208;37.686;2023-08-21T11:11:39;0.80;;;0.80;;
26634;SDS011;14490;54.208;37.686;2023-08-21T11:14:08;1.35;;;1.00;;
26634;SDS011;14490;54.208;37.686;2023-08-21T11:16:37;0.85;;;0.85;;
26634;SDS011;14490;54.208;37.686;2023-08-21T11:19:06;1.10;;;1.00;;
26634;SDS011;14490;54.208;37.686;2023-08-21T11:21:35;1.20;;;1.10;;
26634;SDS011;14490;54.208;37.686;2023-08-21T11:24:02;1.02;;;1.00;;
26634;SDS011;14490;54.208;37.686;2023-08-21T11:26:30;4.75;;;0.70;;
26634;SDS011;14490;54.208;37.686;2023-08-21T11:28:58;2.35;;;0.88;;
26634;SDS011;14490;54.208;37.686;2023-08-21T11:31:27;3.03;;;1.15;;
26634;SDS011;14490;54.208;37.686;2023-08-21T11:33:56;4.15;;;1.00;;
26634;SDS011;14490;54.208;37.686;2023-08-21T11:36:26;1.55;;;1.02;;
26634;SDS011;14490;54.208;37.686;2023-08-21T11:38:59;3.78;;;0.90;;
26634;SDS011;14490;54.208;37.686;2023-08-21T11:41:28;3.05;;;1.08;;
26634;SDS011;14490;54.208;37.686;2023-08-21T11:44:01;7.90;;;4.45;;
26634;SDS011;14490;54.208;37.686;2023-08-21T11:46:29;8.98;;;1.75;;
26634;SDS011;14490;54.208;37.686;2023-08-21T11:48:59;10.30;;;2.17;;
26634;SDS011;14490;54.208;37.686;2023-08-21T11:51:29;9.43;;;1.20;;
26634;SDS011;14490;54.208;37.686;2023-08-21T11:54:08;2.70;;;1.33;;
26634;SDS011;14490;54.208;37.686;2023-08-21T11:56:35;1.67;;;1.30;;
26634;SDS011;14490;54.208;37.686;2023-08-21T11:59:06;2.85;;;1.30;;
26634;SDS011;14490;54.208;37.686;2023-08-21T12:01:34;6.63;;;1.92;;
26634;SDS011;14490;54.208;37.686;2023-08-21T12:04:07;3.83;;;1.38;;
26634;SDS011;14490;54.208;37.686;2023-08-21T12:06:43;2.10;;;0.95;;
26634;SDS011;14490;54.208;37.686;2023-08-21T12:09:11;2.83;;;1.02;;
26634;SDS011;14490;54.208;37.686;2023-08-21T12:11:38;1.65;;;1.00;;
26634;SDS011;14490;54.208;37.686;2023-08-21T12:14:06;2.30;;;0.80;;
26634;SDS011;14490;54.208;37.686;2023-08-21T12:16:33;2.28;;;0.77;;
26634;SDS011;14490;54.208;37.686;2023-08-21T12:19:01;1.45;;;0.85;;
26634;SDS011;14490;54.208;37.686;2023-08-21T12:21:29;1.27;;;1.08;;
26634;SDS011;14490;54.208;37.686;2023-08-21T12:23:59;1.75;;;0.93;;
26634;SDS011;14490;54.208;37.686;2023-08-21T12:26:26;4.82;;;1.10;;
26634;SDS011;14490;54.208;37.686;2023-08-21T12:28:53;3.03;;;0.90;;
26634;SDS011;14490;54.208;37.686;2023-08-21T12:31:20;4.15;;;1.15;;
26634;SDS011;14490;54.208;37.686;2023-08-21T12:33:49;4.00;;;1.27;;
26634;SDS011;14490;54.208;37.686;2023-08-21T12:36:16;1.80;;;1.20;;
26634;SDS011;14490;54.208;37.686;2023-08-21T12:38:45;7.65;;;1.20;;
26634;SDS011;14490;54.208;37.686;2023-08-21T12:41:12;5.07;;;0.90;;
26634;SDS011;14490;54.208;37.686;2023-08-21T12:43:39;1.50;;;1.00;;
26634;SDS011;14490;54.208;37.686;2023-08-21T12:46:07;1.52;;;1.08;;
26634;SDS011;14490;54.208;37.686;2023-08-21T12:48:34;1.35;;;0.77;;
26634;SDS011;14490;54.208;37.686;2023-08-21T12:51:02;2.90;;;1.17;;
26634;SDS011;14490;54.208;37.686;2023-08-21T12:53:30;4.00;;;1.20;;
26634;SDS011;14490;54.208;37.686;2023-08-21T12:55:59;4.53;;;1.20;;
26634;SDS011;14490;54.208;37.686;2023-08-21T12:58:26;5.35;;;1.15;;
26634;SDS011;14490;54.208;37.686;2023-08-21T13:00:55;1.33;;;1.17;;
26634;SDS011;14490;54.208;37.686;2023-08-21T13:03:24;1.67;;;1.05;;
26634;SDS011;14490;54.208;37.686;2023-08-21T13:09:07;1.42;;;1.05;;
26634;SDS011;14490;54.208;37.686;2023-08-21T13:11:38;1.70;;;1.00;;
26634;SDS011;14490;54.208;37.686;2023-08-21T13:14:09;1.83;;;1.30;;
26634;SDS011;14490;54.208;37.686;2023-08-21T13:16:36;3.00;;;1.30;;
26634;SDS011;14490;54.208;37.686;2023-08-21T13:19:06;1.40;;;1.05;;
26634;SDS011;14490;54.208;37.686;2023-08-21T13:21:33;4.45;;;1.30;;
26634;SDS011;14490;54.208;37.686;2023-08-21T13:26:55;6.43;;;1.20;;
26634;SDS011;14490;54.208;37.686;2023-08-21T13:29:25;4.95;;;1.33;;
26634;SDS011;14490;54.208;37.686;2023-08-21T13:31:53;4.05;;;1.30;;
26634;SDS011;14490;54.208;37.686;2023-08-21T13:34:29;1.30;;;1.20;;
26634;SDS011;14490;54.208;37.686;2023-08-21T13:36:59;1.25;;;1.08;;
26634;SDS011;14490;54.208;37.686;2023-08-21T13:39:29;3.78;;;1.60;;
26634;SDS011;14490;54.208;37.686;2023-08-21T13:41:58;2.90;;;1.23;;
26634;SDS011;14490;54.208;37.686;2023-08-21T13:44:35;4.40;;;1.08;;
26634;SDS011;14490;54.208;37.686;2023-08-21T13:47:05;4.60;;;0.90;;
26634;SDS011;14490;54.208;37.686;2023-08-21T13:49:32;2.63;;;1.25;;
26634;SDS011;14490;54.208;37.686;2023-08-21T13:52:04;5.07;;;1.63;;
26634;SDS011;14490;54.208;37.686;2023-08-21T13:54:32;3.13;;;1.50;;
26634;SDS011;14490;54.208;37.686;2023-08-21T13:57:04;1.48;;;1.00;;
26634;SDS011;14490;54.208;37.686;2023-08-21T13:59:36;1.27;;;1.00;;
26634;SDS011;14490;54.208;37.686;2023-08-21T14:02:06;3.88;;;1.40;;
26634;SDS011;14490;54.208;37.686;2023-08-21T14:04:45;1.58;;;1.10;;
26634;SDS011;14490;54.208;37.686;2023-08-21T14:07:12;1.38;;;1.27;;
26634;SDS011;14490;54.208;37.686;2023-08-21T14:09:42;2.20;;;1.00;;
26634;SDS011;14490;54.208;37.686;2023-08-21T14:12:16;3.78;;;1.23;;
26634;SDS011;14490;54.208;37.686;2023-08-21T14:14:44;1.98;;;1.20;;
26634;SDS011;14490;54.208;37.686;2023-08-21T14:17:11;1.25;;;1.02;;
26634;SDS011;14490;54.208;37.686;2023-08-21T14:19:38;1.05;;;0.88;;
26634;SDS011;14490;54.208;37.686;2023-08-21T14:22:06;1.90;;;1.17;;
26634;SDS011;14490;54.208;37.686;2023-08-21T14:24:33;1.48;;;1.20;;
26634;SDS011;14490;54.208;37.686;2023-08-21T14:27:03;2.97;;;1.38;;
26634;SDS011;14490;54.208;37.686;2023-08-21T14:29:32;3.10;;;1.95;;
26634;SDS011;14490;54.208;37.686;2023-08-21T14:31:59;4.80;;;1.77;;
26634;SDS011;14490;54.208;37.686;2023-08-21T14:34:27;9.25;;;2.15;;
26634;SDS011;14490;54.208;37.686;2023-08-21T14:36:55;6.18;;;3.50;;
26634;SDS011;14490;54.208;37.686;2023-08-21T14:39:23;4.28;;;1.60;;
26634;SDS011;14490;54.208;37.686;2023-08-21T14:41:53;2.92;;;1.15;;
26634;SDS011;14490;54.208;37.686;2023-08-21T14:44:21;1.55;;;1.45;;
26634;SDS011;14490;54.208;37.686;2023-08-21T14:46:51;3.53;;;1.73;;
26634;SDS011;14490;54.208;37.686;2023-08-21T14:49:19;1.70;;;1.33;;
26634;SDS011;14490;54.208;37.686;2023-08-21T14:51:47;3.55;;;2.30;;
26634;SDS011;14490;54.208;37.686;2023-08-21T14:54:19;4.13;;;2.05;;